Dinslaken/Schwarze Heide Airport


Codes: EDLD/
Name: Dinslaken/Schwarze Heide Airport
City: Bottrop-Kirchhellen
Country: Germany
Elevation: 217 ft.

Photos at Dinslaken/Schwarze Heide Airport


   Photos courtesy of SpottingLog. You can add your own sightings and photos by signing up for a free trial today.



No photos found.

Weather at Dinslaken/Schwarze Heide Airport


Time (UTC)DescriptionTempratureWindCloud coverageVisibilityPressureHumidity
17-Jun-2024 06:00Light Rain14°C7 mph, SW100%10000m1011hPa97%
17-Jun-2024 09:00Light Rain15°C9 mph, SW100%10000m1011hPa94%
17-Jun-2024 12:00Light Rain17°C9 mph, SW98%10000m1012hPa84%
17-Jun-2024 15:00Light Rain18°C7 mph, W92%10000m1013hPa79%
17-Jun-2024 18:00Light Rain18°C2 mph, W93%10000m1013hPa81%
17-Jun-2024 21:00Broken Clouds14°C2 mph, S72%10000m1015hPa92%
18-Jun-2024 00:00Overcast Clouds13°C4 mph, S85%10000m1015hPa95%
18-Jun-2024 03:00Overcast Clouds13°C4 mph, S99%10000m1015hPa96%
18-Jun-2024 06:00Overcast Clouds16°C2 mph, S97%10000m1015hPa88%
18-Jun-2024 09:00Overcast Clouds21°C2 mph, E100%10000m1015hPa64%
18-Jun-2024 12:00Light Rain22°C4 mph, N100%10000m1014hPa59%
18-Jun-2024 15:00Moderate Rain17°C4 mph, N100%8112m1013hPa94%
18-Jun-2024 18:00Moderate Rain16°C4 mph, N100%8249m1014hPa98%
18-Jun-2024 21:00Moderate Rain15°C7 mph, N100%10000m1015hPa96%
19-Jun-2024 00:00Light Rain14°C7 mph, N100%10000m1016hPa98%
19-Jun-2024 03:00Light Rain13°C7 mph, N100%10000m1017hPa98%
19-Jun-2024 06:00Overcast Clouds13°C9 mph, N100%10000m1018hPa90%
19-Jun-2024 09:00Broken Clouds17°C7 mph, N63%10000m1020hPa63%
19-Jun-2024 12:00Broken Clouds20°C7 mph, NW57%10000m1020hPa51%
19-Jun-2024 15:00Clear Sky20°C9 mph, N4%10000m1020hPa51%
19-Jun-2024 18:00Few Clouds18°C7 mph, N15%10000m1022hPa65%
19-Jun-2024 21:00Broken Clouds13°C7 mph, NE65%10000m1023hPa84%
20-Jun-2024 00:00Scattered Clouds11°C7 mph, NE39%10000m1023hPa87%
20-Jun-2024 03:00Overcast Clouds10°C7 mph, E99%10000m1023hPa93%
20-Jun-2024 06:00Overcast Clouds13°C9 mph, E89%10000m1021hPa73%
20-Jun-2024 09:00Broken Clouds19°C7 mph, E81%10000m1021hPa48%
20-Jun-2024 12:00Broken Clouds23°C7 mph, E81%10000m1020hPa43%
20-Jun-2024 15:00Overcast Clouds18°C9 mph, E99%10000m1017hPa69%
20-Jun-2024 18:00Light Rain20°C7 mph, E92%10000m1015hPa72%
20-Jun-2024 21:00Light Rain17°C7 mph, E98%10000m1013hPa92%
21-Jun-2024 00:00Light Rain17°C7 mph, SE99%10000m1012hPa95%
21-Jun-2024 03:00Light Rain17°C4 mph, S99%10000m1011hPa96%
21-Jun-2024 06:00Light Rain18°C2 mph, SE100%10000m1010hPa97%
21-Jun-2024 09:00Light Rain18°C2 mph, SW100%10000m1009hPa96%
21-Jun-2024 12:00Light Rain22°C11 mph, SW97%8273m1009hPa74%
21-Jun-2024 15:00Light Rain21°C13 mph, SW98%10000m1009hPa73%
21-Jun-2024 18:00Light Rain18°C11 mph, W100%10000m1011hPa81%
21-Jun-2024 21:00Overcast Clouds14°C7 mph, W98%10000m1012hPa89%
22-Jun-2024 00:00Overcast Clouds14°C4 mph, SW87%10000m1012hPa85%
22-Jun-2024 03:00Broken Clouds14°C7 mph, SW84%10000m1012hPa90%